AXQ weather

Clarion County Airport
Clarion, Pennsylvania, United States

Public forecast

Using degrees Fahrenheit for public forecast. Weather courtesy of forecast.io.

Closest aviation weather report (METAR) to Clarion County Airport

Closest report is Venango Regional Airport, 21.0 nm (38.9 km) WNW. Retrieved 2020/07/02 11:56 UTC (57 minutes ago):

KFKL 021156Z AUTO VRB03KT 10SM CLR 20/17 A3003 RMK AO2 SLP160 7//// T02000167 10200 20150 51008

Closest aviation forecast (TAF) to Clarion County Airport

Closest forecast is Venango Regional Airport, 21.0 nm (38.9 km) WNW. Retrieved 2020/07/02 12:22 UTC (31 minutes ago):

TAF KFKL 021120Z 0212/0312 36008KT P6SM SCT050